Time;durP1;ratioP1;P1;durP2;ratioP2;P2;SDS_P1;SDS_P2;PMS_P1;PMS_P2;Temp;Humidity;BMP_temperature;BMP_pressure;BME280_temperature;BME280_humidity;BME280_pressure;Samples;Min_cycle;Max_cycle;Signal;HPM_P1;HPM_P2
2023/11/22 00:00:12;;;;;;;;;;;;;;;;;;4163018;28;19929;-68
2023/11/22 00:02:13;;;;;;;;;;;;;;;;;;4161459;28;19928;-67
2023/11/22 00:04:15;;;;;;;;;;;;;;;;;;4165608;28;19921;-67
2023/11/22 00:06:20;;;;;;;;;;;;;;;;;;4165861;28;20281;-67
2023/11/22 00:08:21;;;;;;;;;;;;;;;;;;4151902;28;20379;-67
2023/11/22 00:10:23;;;;;;;;;;;;;;;;;;4182292;28;20027;-67
2023/11/22 00:12:24;;;;;;;;;;;;;;;;;;4182156;28;19971;-67
2023/11/22 00:14:26;;;;;;;;;;;;;;;;;;4182211;28;19924;-67
2023/11/22 00:16:28;;;;;;;;;;;;;;;;;;4182431;28;19931;-66
2023/11/22 00:18:30;;;;;;;;;;;;;;;;;;4182666;28;19932;-66
2023/11/22 00:20:33;;;;;;;;;;;;;;;;;;4182221;28;19925;-66
2023/11/22 00:22:35;;;;;;;;;;;;;;;;;;4181998;28;19921;-67
2023/11/22 00:24:38;;;;;;;;;;;;;;;;;;4182003;28;19921;-66
2023/11/22 00:26:39;;;;;;;;;;;;;;;;;;4182190;28;20369;-66
2023/11/22 00:28:41;;;;;;;;;;;;;;;;;;4182024;28;19944;-66
2023/11/22 00:30:42;;;;;;;;;;;;;;;;;;4181852;28;19920;-66
2023/11/22 00:32:44;;;;;;;;;;;;;;;;;;4165765;28;19975;-66
2023/11/22 00:34:45;;;;;;;;;;;;;;;;;;4147860;28;20312;-66
2023/11/22 00:36:48;;;;;;;;;;;;;;;;;;4147662;28;19922;-66
2023/11/22 00:38:50;;;;;;;;;;;;;;;;;;4165607;28;19927;-66
2023/11/22 00:40:51;;;;;;;;;;;;;;;;;;4165344;28;20335;-66
2023/11/22 00:42:53;;;;;;;;;;;;;;;;;;4165247;28;20009;-66
2023/11/22 00:44:55;;;;;;;;;;;;;;;;;;4165404;28;19971;-65
2023/11/22 00:46:57;;;;;;;;;;;;;;;;;;4165407;28;20012;-66
2023/11/22 00:48:59;;;;;;;;;;;;;;;;;;4165319;28;19921;-66
2023/11/22 00:51:00;;;;;;;;;;;;;;;;;;4165355;28;19928;-66
2023/11/22 00:53:02;;;;;;;;;;;;;;;;;;4147862;28;19933;-65
2023/11/22 00:55:03;;;;;;;;;;;;;;;;;;4165074;28;19971;-66
2023/11/22 00:57:06;;;;;;;;;;;;;;;;;;4157515;28;19928;-66
2023/11/22 00:59:08;;;;;;;;;;;;;;;;;;4165286;28;19927;-66
2023/11/22 01:01:11;;;;;;;;;;;;;;;;;;4171534;28;19921;-66
2023/11/22 01:03:12;;;;;;;;;;;;;;;;;;4163641;28;19921;-66
2023/11/22 01:05:15;;;;;;;;;;;;;;;;;;4181323;28;19978;-66
2023/11/22 01:07:17;;;;;;;;;;;;;;;;;;4181620;28;19921;-66
2023/11/22 01:09:18;;;;;;;;;;;;;;;;;;4180464;28;19935;-65
2023/11/22 01:11:21;;;;;;;;;;;;;;;;;;4181489;28;19920;-66
2023/11/22 01:13:22;;;;;;;;;;;;;;;;;;4181657;28;19970;-66
2023/11/22 01:15:24;;;;;;;;;;;;;;;;;;4181314;28;19943;-66
2023/11/22 01:17:41;;;;;;;;;;;;;;;;;;4181504;28;19927;-66
2023/11/22 01:19:42;;;;;;;;;;;;;;;;;;4181565;28;20007;-66
2023/11/22 01:21:44;;;;;;;;;;;;;;;;;;4163874;28;19925;-66
2023/11/22 01:23:46;;;;;;;;;;;;;;;;;;4181421;28;19950;-65
2023/11/22 01:25:48;;;;;;;;;;;;;;;;;;4181126;28;19921;-66
2023/11/22 01:27:49;;;;;;;;;;;;;;;;;;4174468;28;19955;-66
2023/11/22 01:29:54;;;;;;;;;;;;;;;;;;4164630;28;19925;-66
2023/11/22 01:31:55;;;;;;;;;;;;;;;;;;4164206;28;19943;-65
2023/11/22 01:33:58;;;;;;;;;;;;;;;;;;4164721;28;20323;-65
2023/11/22 01:36:00;;;;;;;;;;;;;;;;;;4164566;28;19921;-66
2023/11/22 01:38:04;;;;;;;;;;;;;;;;;;4164588;28;20293;-66
2023/11/22 01:40:08;;;;;;;;;;;;;;;;;;4164521;28;19928;-65
2023/11/22 01:42:14;;;;;;;;;;;;;;;;;;4146922;28;19931;-66
2023/11/22 01:44:16;;;;;;;;;;;;;;;;;;4146941;28;20020;-65
2023/11/22 01:46:18;;;;;;;;;;;;;;;;;;4164720;28;19955;-66
2023/11/22 01:48:19;;;;;;;;;;;;;;;;;;4164394;28;19978;-65
2023/11/22 01:50:21;;;;;;;;;;;;;;;;;;4164542;28;19921;-65
2023/11/22 01:52:22;;;;;;;;;;;;;;;;;;4164420;28;19921;-65
2023/11/22 01:54:24;;;;;;;;;;;;;;;;;;4157428;28;19929;-65
2023/11/22 01:56:26;;;;;;;;;;;;;;;;;;4164761;28;19921;-65
2023/11/22 01:58:28;;;;;;;;;;;;;;;;;;4163785;28;20312;-65
2023/11/22 02:00:30;;;;;;;;;;;;;;;;;;4165719;28;19928;-66
2023/11/22 02:02:32;;;;;;;;;;;;;;;;;;4181164;28;19925;-66
2023/11/22 02:04:34;;;;;;;;;;;;;;;;;;4154774;28;19924;-68
2023/11/22 02:06:36;;;;;;;;;;;;;;;;;;4151256;28;19921;-68
2023/11/22 02:08:39;;;;;;;;;;;;;;;;;;4136678;28;20194;-68
2023/11/22 02:10:41;;;;;;;;;;;;;;;;;;4165893;28;19921;-68
2023/11/22 02:12:43;;;;;;;;;;;;;;;;;;4148203;28;20332;-68
2023/11/22 02:14:44;;;;;;;;;;;;;;;;;;4148246;28;19925;-67
2023/11/22 02:16:50;;;;;;;;;;;;;;;;;;4147807;28;19921;-67
2023/11/22 02:18:51;;;;;;;;;;;;;;;;;;4130473;28;20008;-67
2023/11/22 02:20:53;;;;;;;;;;;;;;;;;;4150875;28;19957;-67
2023/11/22 02:22:54;;;;;;;;;;;;;;;;;;4151321;28;19925;-67
2023/11/22 02:24:56;;;;;;;;;;;;;;;;;;4164571;28;19956;-68
2023/11/22 02:26:57;;;;;;;;;;;;;;;;;;4149640;28;19925;-67
2023/11/22 02:28:59;;;;;;;;;;;;;;;;;;4167188;28;19921;-68
2023/11/22 02:31:00;;;;;;;;;;;;;;;;;;4167496;28;20368;-67
2023/11/22 02:33:02;;;;;;;;;;;;;;;;;;4167439;28;20300;-67
2023/11/22 02:35:07;;;;;;;;;;;;;;;;;;4166527;28;19925;-67
2023/11/22 02:37:08;;;;;;;;;;;;;;;;;;4149763;28;20019;-67
2023/11/22 02:39:10;;;;;;;;;;;;;;;;;;4167137;28;19924;-67
2023/11/22 02:41:13;;;;;;;;;;;;;;;;;;4167333;28;19931;-67
2023/11/22 02:43:15;;;;;;;;;;;;;;;;;;4149634;28;19925;-67
2023/11/22 02:45:22;;;;;;;;;;;;;;;;;;4167092;28;19928;-67
2023/11/22 02:47:24;;;;;;;;;;;;;;;;;;4167663;28;19940;-67
2023/11/22 02:49:25;;;;;;;;;;;;;;;;;;4160279;28;19932;-67
2023/11/22 02:51:27;;;;;;;;;;;;;;;;;;4166537;28;19921;-67
2023/11/22 02:53:30;;;;;;;;;;;;;;;;;;4167287;28;19943;-67
2023/11/22 02:55:31;;;;;;;;;;;;;;;;;;4167247;28;20365;-67
2023/11/22 02:57:33;;;;;;;;;;;;;;;;;;4167087;28;19924;-68
2023/11/22 02:59:34;;;;;;;;;;;;;;;;;;4166940;28;19971;-67
2023/11/22 03:01:36;;;;;;;;;;;;;;;;;;4177131;28;20398;-67
2023/11/22 03:03:37;;;;;;;;;;;;;;;;;;4183261;28;19986;-67
2023/11/22 03:05:42;;;;;;;;;;;;;;;;;;4183282;28;20003;-67
2023/11/22 03:07:44;;;;;;;;;;;;;;;;;;4172672;28;19921;-67
2023/11/22 03:09:46;;;;;;;;;;;;;;;;;;4182138;28;19925;-67
2023/11/22 03:11:47;;;;;;;;;;;;;;;;;;4183172;28;20369;-68
2023/11/22 03:13:49;;;;;;;;;;;;;;;;;;4183126;28;19982;-68
2023/11/22 03:15:50;;;;;;;;;;;;;;;;;;4183327;28;19920;-67
2023/11/22 03:17:52;;;;;;;;;;;;;;;;;;4183202;28;19920;-67
2023/11/22 03:19:53;;;;;;;;;;;;;;;;;;4179792;28;20274;-67
2023/11/22 03:21:56;;;;;;;;;;;;;;;;;;4148975;28;19921;-68
2023/11/22 03:24:00;;;;;;;;;;;;;;;;;;4166374;28;19921;-67
2023/11/22 03:26:03;;;;;;;;;;;;;;;;;;4166759;28;19928;-67
2023/11/22 03:28:05;;;;;;;;;;;;;;;;;;4166652;28;20008;-66
2023/11/22 03:30:11;;;;;;;;;;;;;;;;;;4166363;28;19928;-67
2023/11/22 03:32:13;;;;;;;;;;;;;;;;;;4165646;28;19921;-67
2023/11/22 03:34:15;;;;;;;;;;;;;;;;;;4166595;28;19932;-67
2023/11/22 03:36:16;;;;;;;;;;;;;;;;;;4166393;28;20369;-67
2023/11/22 03:38:18;;;;;;;;;;;;;;;;;;4166205;28;20394;-67
2023/11/22 03:40:20;;;;;;;;;;;;;;;;;;4166459;28;20231;-68
2023/11/22 03:42:21;;;;;;;;;;;;;;;;;;4148617;28;19922;-67
2023/11/22 03:44:23;;;;;;;;;;;;;;;;;;4166745;28;19941;-67
2023/11/22 03:46:26;;;;;;;;;;;;;;;;;;4158621;28;20361;-68
2023/11/22 03:48:28;;;;;;;;;;;;;;;;;;4166125;28;19921;-68
2023/11/22 03:50:30;;;;;;;;;;;;;;;;;;4148475;28;19921;-67
2023/11/22 03:52:31;;;;;;;;;;;;;;;;;;4166035;28;19963;-67
2023/11/22 03:54:33;;;;;;;;;;;;;;;;;;4165941;28;20419;-67
2023/11/22 03:56:34;;;;;;;;;;;;;;;;;;4166008;28;19929;-67
2023/11/22 03:58:36;;;;;;;;;;;;;;;;;;4166201;28;19956;-68
2023/11/22 04:00:37;;;;;;;;;;;;;;;;;;4168147;28;19972;-68
2023/11/22 04:02:39;;;;;;;;;;;;;;;;;;4164888;28;20592;-68
2023/11/22 04:04:41;;;;;;;;;;;;;;;;;;4182214;28;19974;-67
2023/11/22 04:06:43;;;;;;;;;;;;;;;;;;4182493;28;20019;-68
2023/11/22 04:08:45;;;;;;;;;;;;;;;;;;4182400;28;19932;-67
2023/11/22 04:10:47;;;;;;;;;;;;;;;;;;4182259;28;19974;-67
2023/11/22 04:12:49;;;;;;;;;;;;;;;;;;4182334;28;20371;-68
2023/11/22 04:14:51;;;;;;;;;;;;;;;;;;4164689;28;19967;-67
2023/11/22 04:16:53;;;;;;;;;;;;;;;;;;4172896;28;19925;-68
2023/11/22 04:18:54;;;;;;;;;;;;;;;;;;4165937;28;19929;-67
2023/11/22 04:20:58;;;;;;;;;;;;;;;;;;4165676;28;19925;-68
2023/11/22 04:23:00;;;;;;;;;;;;;;;;;;4165788;28;19925;-67
2023/11/22 04:25:02;;;;;;;;;;;;;;;;;;4165529;28;19966;-67
2023/11/22 04:27:04;;;;;;;;;;;;;;;;;;4165803;28;19927;-67
2023/11/22 04:29:06;;;;;;;;;;;;;;;;;;4165467;28;19987;-67
2023/11/22 04:31:10;;;;;;;;;;;;;;;;;;4165734;28;19971;-67
2023/11/22 04:33:12;;;;;;;;;;;;;;;;;;4165304;28;19951;-67
2023/11/22 04:35:13;;;;;;;;;;;;;;;;;;4147880;28;20432;-67
2023/11/22 04:37:15;;;;;;;;;;;;;;;;;;4165648;28;19975;-67
2023/11/22 04:39:17;;;;;;;;;;;;;;;;;;4165377;28;20308;-68
2023/11/22 04:41:19;;;;;;;;;;;;;;;;;;4163292;28;19999;-67
2023/11/22 04:43:21;;;;;;;;;;;;;;;;;;4170879;28;19920;-67
2023/11/22 04:45:22;;;;;;;;;;;;;;;;;;4182059;28;19921;-67
2023/11/22 04:47:25;;;;;;;;;;;;;;;;;;4163953;28;19936;-67
2023/11/22 04:49:26;;;;;;;;;;;;;;;;;;4181847;28;20266;-68
2023/11/22 04:51:29;;;;;;;;;;;;;;;;;;4181696;28;19928;-67
2023/11/22 04:53:32;;;;;;;;;;;;;;;;;;4181745;28;20364;-67
2023/11/22 04:55:34;;;;;;;;;;;;;;;;;;4181846;28;20007;-67
2023/11/22 04:57:35;;;;;;;;;;;;;;;;;;4181539;28;19924;-67
2023/11/22 04:59:38;;;;;;;;;;;;;;;;;;4181834;28;19921;-67
2023/11/22 05:01:39;;;;;;;;;;;;;;;;;;4170608;28;19921;-67
2023/11/22 05:03:41;;;;;;;;;;;;;;;;;;4164940;28;19921;-67
2023/11/22 05:05:43;;;;;;;;;;;;;;;;;;4165309;28;19921;-66
2023/11/22 05:07:44;;;;;;;;;;;;;;;;;;4163983;28;20439;-67
2023/11/22 05:09:46;;;;;;;;;;;;;;;;;;4169528;28;19952;-67
2023/11/22 05:11:47;;;;;;;;;;;;;;;;;;4161436;28;20337;-67
2023/11/22 05:13:50;;;;;;;;;;;;;;;;;;4157364;28;19922;-68
2023/11/22 05:15:51;;;;;;;;;;;;;;;;;;4163736;28;20284;-67
2023/11/22 05:17:53;;;;;;;;;;;;;;;;;;4147388;28;20405;-68
2023/11/22 05:19:54;;;;;;;;;;;;;;;;;;4164765;28;19921;-67
2023/11/22 05:21:57;;;;;;;;;;;;;;;;;;4164980;28;19927;-67
2023/11/22 05:23:58;;;;;;;;;;;;;;;;;;4164723;28;19928;-67
2023/11/22 05:26:00;;;;;;;;;;;;;;;;;;4164632;28;20451;-68
2023/11/22 05:28:03;;;;;;;;;;;;;;;;;;4164877;28;19921;-67
2023/11/22 05:30:05;;;;;;;;;;;;;;;;;;4164826;28;19929;-67
2023/11/22 05:32:06;;;;;;;;;;;;;;;;;;4164792;28;19940;-67
2023/11/22 05:34:08;;;;;;;;;;;;;;;;;;4164832;28;20312;-67
2023/11/22 05:36:11;;;;;;;;;;;;;;;;;;4164922;28;19929;-68
2023/11/22 05:38:12;;;;;;;;;;;;;;;;;;4157990;28;19921;-68
2023/11/22 05:40:15;;;;;;;;;;;;;;;;;;4159766;28;19927;-68
2023/11/22 05:42:17;;;;;;;;;;;;;;;;;;4166018;28;19921;-67
2023/11/22 05:44:19;;;;;;;;;;;;;;;;;;4164769;28;19932;-67
2023/11/22 05:46:24;;;;;;;;;;;;;;;;;;4164640;28;19921;-68
2023/11/22 05:48:26;;;;;;;;;;;;;;;;;;4164993;28;19932;-69
2023/11/22 05:50:27;;;;;;;;;;;;;;;;;;4164464;28;20428;-68
2023/11/22 05:52:29;;;;;;;;;;;;;;;;;;4164386;28;19932;-67
2023/11/22 05:54:31;;;;;;;;;;;;;;;;;;4165327;28;19928;-67
2023/11/22 05:56:33;;;;;;;;;;;;;;;;;;4167837;28;19925;-68
2023/11/22 05:58:38;;;;;;;;;;;;;;;;;;4168013;28;20289;-68
2023/11/22 06:00:40;;;;;;;;;;;;;;;;;;4170091;28;19927;-68
2023/11/22 06:02:42;;;;;;;;;;;;;;;;;;4184204;28;20297;-68
2023/11/22 06:04:43;;;;;;;;;;;;;;;;;;4175102;28;19928;-67
2023/11/22 06:06:45;;;;;;;;;;;;;;;;;;4167810;28;19932;-67
2023/11/22 06:08:47;;;;;;;;;;;;;;;;;;4170835;28;19921;-68
2023/11/22 06:10:49;;;;;;;;;;;;;;;;;;4167509;28;19921;-67
2023/11/22 06:12:50;;;;;;;;;;;;;;;;;;4175209;28;20368;-68
2023/11/22 06:14:52;;;;;;;;;;;;;;;;;;4167494;28;19951;-69
2023/11/22 06:16:54;;;;;;;;;;;;;;;;;;4167699;28;20404;-64
2023/11/22 06:18:55;;;;;;;;;;;;;;;;;;4167638;28;19925;-64
2023/11/22 06:20:57;;;;;;;;;;;;;;;;;;4167583;28;20048;-65
2023/11/22 06:22:58;;;;;;;;;;;;;;;;;;4167635;28;19921;-64
2023/11/22 06:25:00;;;;;;;;;;;;;;;;;;4159197;28;19921;-64
2023/11/22 06:27:01;;;;;;;;;;;;;;;;;;4164384;28;20432;-64
2023/11/22 06:29:03;;;;;;;;;;;;;;;;;;4159917;28;19925;-64
2023/11/22 06:31:04;;;;;;;;;;;;;;;;;;4151062;28;19921;-64
2023/11/22 06:33:07;;;;;;;;;;;;;;;;;;4179782;28;19978;-64
2023/11/22 06:35:08;;;;;;;;;;;;;;;;;;4153214;28;19968;-65
2023/11/22 06:37:12;;;;;;;;;;;;;;;;;;4166340;28;19922;-64
2023/11/22 06:39:14;;;;;;;;;;;;;;;;;;4166391;28;19928;-65
2023/11/22 06:41:18;;;;;;;;;;;;;;;;;;4166826;28;19931;-64
2023/11/22 06:43:20;;;;;;;;;;;;;;;;;;4167629;28;19929;-65
2023/11/22 06:45:22;;;;;;;;;;;;;;;;;;4167445;28;20270;-64
2023/11/22 06:47:23;;;;;;;;;;;;;;;;;;4149771;28;19967;-64
2023/11/22 06:49:25;;;;;;;;;;;;;;;;;;4167468;28;19944;-65
2023/11/22 06:51:26;;;;;;;;;;;;;;;;;;4166861;28;19971;-65
2023/11/22 06:53:28;;;;;;;;;;;;;;;;;;4145535;28;19939;-66
2023/11/22 06:55:30;;;;;;;;;;;;;;;;;;4164744;28;19921;-66
2023/11/22 06:57:32;;;;;;;;;;;;;;;;;;4163242;28;19922;-66
2023/11/22 06:59:33;;;;;;;;;;;;;;;;;;4164654;28;19928;-67
2023/11/22 07:01:36;;;;;;;;;;;;;;;;;;4165418;28;19925;-66
2023/11/22 07:03:40;;;;;;;;;;;;;;;;;;4163805;28;20334;-67
2023/11/22 07:05:42;;;;;;;;;;;;;;;;;;4164412;28;19921;-67
2023/11/22 07:07:43;;;;;;;;;;;;;;;;;;4164590;28;19982;-66
2023/11/22 07:09:46;;;;;;;;;;;;;;;;;;4164697;28;19921;-66
2023/11/22 07:11:47;;;;;;;;;;;;;;;;;;4166487;28;19928;-66
2023/11/22 07:13:49;;;;;;;;;;;;;;;;;;4166868;28;19920;-66
2023/11/22 07:15:51;;;;;;;;;;;;;;;;;;4163690;28;20357;-66
2023/11/22 07:17:54;;;;;;;;;;;;;;;;;;4165692;28;19921;-66
2023/11/22 07:19:55;;;;;;;;;;;;;;;;;;4165241;28;19938;-66
2023/11/22 07:21:57;;;;;;;;;;;;;;;;;;4151274;28;19936;-66
2023/11/22 07:23:59;;;;;;;;;;;;;;;;;;4163493;28;19967;-66
2023/11/22 07:26:01;;;;;;;;;;;;;;;;;;4166552;28;20384;-66
2023/11/22 07:28:02;;;;;;;;;;;;;;;;;;4166629;28;20365;-66
2023/11/22 07:30:04;;;;;;;;;;;;;;;;;;4158118;28;19936;-66
2023/11/22 07:32:05;;;;;;;;;;;;;;;;;;4161860;28;19961;-66
2023/11/22 07:34:08;;;;;;;;;;;;;;;;;;4162600;28;19921;-66
2023/11/22 07:36:14;;;;;;;;;;;;;;;;;;4159550;28;19967;-66
2023/11/22 07:38:17;;;;;;;;;;;;;;;;;;4161458;28;19932;-66
2023/11/22 07:40:19;;;;;;;;;;;;;;;;;;4161652;28;20024;-66
2023/11/22 07:42:22;;;;;;;;;;;;;;;;;;4154014;28;20016;-66
2023/11/22 07:44:26;;;;;;;;;;;;;;;;;;4165359;28;19990;-67
2023/11/22 07:46:28;;;;;;;;;;;;;;;;;;4163592;28;19981;-67
2023/11/22 07:48:29;;;;;;;;;;;;;;;;;;4143132;28;20020;-68
2023/11/22 07:50:32;;;;;;;;;;;;;;;;;;4161974;28;19975;-65
2023/11/22 07:52:33;;;;;;;;;;;;;;;;;;4164284;28;19933;-66
2023/11/22 07:54:35;;;;;;;;;;;;;;;;;;4163879;28;19931;-66
2023/11/22 07:56:37;;;;;;;;;;;;;;;;;;4165791;28;19925;-66
2023/11/22 07:58:38;;;;;;;;;;;;;;;;;;4163204;28;19921;-67
2023/11/22 08:00:42;;;;;;;;;;;;;;;;;;4168311;28;19921;-68
2023/11/22 08:02:44;;;;;;;;;;;;;;;;;;4163921;28;20012;-67
2023/11/22 08:04:47;;;;;;;;;;;;;;;;;;4163442;28;19921;-67
2023/11/22 08:06:56;;;;;;;;;;;;;;;;;;4163809;28;19928;-68
2023/11/22 08:09:01;;;;;;;;;;;;;;;;;;4146863;28;19922;-68
2023/11/22 08:11:04;;;;;;;;;;;;;;;;;;4164912;28;20288;-67
2023/11/22 08:13:06;;;;;;;;;;;;;;;;;;4163706;28;19921;-67
2023/11/22 08:15:09;;;;;;;;;;;;;;;;;;4159414;28;20290;-68
2023/11/22 08:17:13;;;;;;;;;;;;;;;;;;4158778;28;19921;-67
2023/11/22 08:19:16;;;;;;;;;;;;;;;;;;4143996;28;20019;-67
2023/11/22 08:21:18;;;;;;;;;;;;;;;;;;4162471;28;19984;-68
2023/11/22 08:23:20;;;;;;;;;;;;;;;;;;4163044;28;19931;-67
2023/11/22 08:25:21;;;;;;;;;;;;;;;;;;4165658;28;19944;-67
2023/11/22 08:27:23;;;;;;;;;;;;;;;;;;4165239;28;20380;-68
2023/11/22 08:29:24;;;;;;;;;;;;;;;;;;4164624;28;20328;-67
2023/11/22 08:31:26;;;;;;;;;;;;;;;;;;4159038;28;19925;-68
2023/11/22 08:33:27;;;;;;;;;;;;;;;;;;4159588;28;19964;-68
2023/11/22 08:35:29;;;;;;;;;;;;;;;;;;4158126;28;20278;-68
2023/11/22 08:37:34;;;;;;;;;;;;;;;;;;4147057;28;19959;-67
2023/11/22 08:39:36;;;;;;;;;;;;;;;;;;4163280;28;19921;-67
2023/11/22 08:41:38;;;;;;;;;;;;;;;;;;4139781;28;19945;-68
2023/11/22 08:43:39;;;;;;;;;;;;;;;;;;4157883;28;19921;-68
2023/11/22 08:45:43;;;;;;;;;;;;;;;;;;4164611;28;19928;-68
2023/11/22 08:47:46;;;;;;;;;;;;;;;;;;4163804;28;20015;-67
2023/11/22 08:49:48;;;;;;;;;;;;;;;;;;4161887;28;20015;-68
2023/11/22 08:51:49;;;;;;;;;;;;;;;;;;4161948;28;19932;-67
2023/11/22 08:53:51;;;;;;;;;;;;;;;;;;4140453;28;19925;-68
2023/11/22 08:55:55;;;;;;;;;;;;;;;;;;4163812;28;19921;-68
2023/11/22 08:57:58;;;;;;;;;;;;;;;;;;4163547;28;19925;-68
2023/11/22 09:00:06;;;;;;;;;;;;;;;;;;4161940;28;20372;-66
2023/11/22 09:02:08;;;;;;;;;;;;;;;;;;4162269;28;20296;-66
2023/11/22 09:04:09;;;;;;;;;;;;;;;;;;4136143;28;19925;-65
2023/11/22 09:06:11;;;;;;;;;;;;;;;;;;4146305;28;19930;-66
2023/11/22 09:08:15;;;;;;;;;;;;;;;;;;4144122;28;20388;-66
2023/11/22 09:10:26;;;;;;;;;;;;;;;;;;4140615;28;20317;-66
2023/11/22 09:12:29;;;;;;;;;;;;;;;;;;4147111;28;19929;-66
2023/11/22 09:14:31;;;;;;;;;;;;;;;;;;4144054;28;19921;-65
2023/11/22 09:16:32;;;;;;;;;;;;;;;;;;4142893;28;19927;-66
2023/11/22 09:18:34;;;;;;;;;;;;;;;;;;4148394;28;20359;-66
2023/11/22 09:20:36;;;;;;;;;;;;;;;;;;4155152;28;19975;-65
2023/11/22 09:22:39;;;;;;;;;;;;;;;;;;4147309;28;19935;-66
2023/11/22 09:24:40;;;;;;;;;;;;;;;;;;4151741;28;19921;-66
2023/11/22 09:26:42;;;;;;;;;;;;;;;;;;4148302;28;19972;-66
2023/11/22 09:28:46;;;;;;;;;;;;;;;;;;4148150;28;19925;-66
2023/11/22 09:30:48;;;;;;;;;;;;;;;;;;4146901;28;19968;-65
2023/11/22 09:32:49;;;;;;;;;;;;;;;;;;4148482;28;19927;-65
2023/11/22 09:34:57;;;;;;;;;;;;;;;;;;4148265;28;19925;-66
2023/11/22 09:36:59;;;;;;;;;;;;;;;;;;4147294;28;20016;-66
2023/11/22 09:39:02;;;;;;;;;;;;;;;;;;4146546;28;19921;-66
2023/11/22 09:41:04;;;;;;;;;;;;;;;;;;4143488;28;20044;-66
2023/11/22 09:43:06;;;;;;;;;;;;;;;;;;4147841;28;20354;-65
2023/11/22 09:45:07;;;;;;;;;;;;;;;;;;4143943;28;19932;-65
2023/11/22 09:47:09;;;;;;;;;;;;;;;;;;4144279;28;20395;-66
2023/11/22 09:49:11;;;;;;;;;;;;;;;;;;4148789;28;19926;-66
2023/11/22 09:51:14;;;;;;;;;;;;;;;;;;4155477;28;19922;-66
2023/11/22 09:53:16;;;;;;;;;;;;;;;;;;4148214;28;19976;-66
2023/11/22 09:55:17;;;;;;;;;;;;;;;;;;4147833;28;19925;-67
2023/11/22 09:57:19;;;;;;;;;;;;;;;;;;4143236;28;19922;-66
2023/11/22 09:59:23;;;;;;;;;;;;;;;;;;4148241;28;20353;-66
2023/11/22 10:01:25;;;;;;;;;;;;;;;;;;4147575;28;19932;-66
2023/11/22 10:03:26;;;;;;;;;;;;;;;;;;4151239;28;19928;-66
2023/11/22 10:05:28;;;;;;;;;;;;;;;;;;4161560;28;19929;-66
2023/11/22 10:07:30;;;;;;;;;;;;;;;;;;4161729;28;19929;-66
2023/11/22 10:09:31;;;;;;;;;;;;;;;;;;4161301;28;19921;-68
2023/11/22 10:11:33;;;;;;;;;;;;;;;;;;4164697;28;20339;-67
2023/11/22 10:13:34;;;;;;;;;;;;;;;;;;4160623;28;19995;-68
2023/11/22 10:15:36;;;;;;;;;;;;;;;;;;4159631;28;19921;-68
2023/11/22 10:17:40;;;;;;;;;;;;;;;;;;4162169;28;20380;-67
2023/11/22 10:19:42;;;;;;;;;;;;;;;;;;4158738;28;19959;-68
2023/11/22 10:21:43;;;;;;;;;;;;;;;;;;4161661;28;20369;-68
2023/11/22 10:23:45;;;;;;;;;;;;;;;;;;4157776;28;19964;-68
2023/11/22 10:25:49;;;;;;;;;;;;;;;;;;4162083;28;19967;-68
2023/11/22 10:27:51;;;;;;;;;;;;;;;;;;4155761;28;20351;-68
2023/11/22 10:29:52;;;;;;;;;;;;;;;;;;4144284;28;19928;-67
2023/11/22 10:31:54;;;;;;;;;;;;;;;;;;4164480;28;20341;-67
2023/11/22 10:33:57;;;;;;;;;;;;;;;;;;4147180;28;19988;-68
2023/11/22 10:35:59;;;;;;;;;;;;;;;;;;4156429;28;19924;-66
2023/11/22 10:38:02;;;;;;;;;;;;;;;;;;4146562;28;19925;-69
2023/11/22 10:40:06;;;;;;;;;;;;;;;;;;4142317;28;19932;-68
2023/11/22 10:42:08;;;;;;;;;;;;;;;;;;4167447;28;19925;-69
2023/11/22 10:44:09;;;;;;;;;;;;;;;;;;4167385;28;19947;-67
2023/11/22 10:46:11;;;;;;;;;;;;;;;;;;4154080;28;19921;-68
2023/11/22 10:48:14;;;;;;;;;;;;;;;;;;4142522;28;20365;-67
2023/11/22 10:50:16;;;;;;;;;;;;;;;;;;4155027;28;20011;-68
2023/11/22 10:52:18;;;;;;;;;;;;;;;;;;4165458;28;19935;-68
2023/11/22 10:54:20;;;;;;;;;;;;;;;;;;4163703;28;20343;-66
2023/11/22 10:56:21;;;;;;;;;;;;;;;;;;4166738;28;19921;-69
2023/11/22 10:58:24;;;;;;;;;;;;;;;;;;4165379;28;19920;-68
2023/11/22 11:00:27;;;;;;;;;;;;;;;;;;4165562;28;19932;-67
2023/11/22 11:02:32;;;;;;;;;;;;;;;;;;4162408;28;19975;-68
2023/11/22 11:04:35;;;;;;;;;;;;;;;;;;4165915;28;19925;-67
2023/11/22 11:06:36;;;;;;;;;;;;;;;;;;4165552;28;19924;-68
2023/11/22 11:08:38;;;;;;;;;;;;;;;;;;4171759;28;20350;-69
2023/11/22 11:10:40;;;;;;;;;;;;;;;;;;4159371;28;19929;-67
2023/11/22 11:12:42;;;;;;;;;;;;;;;;;;4150246;28;19921;-66
2023/11/22 11:14:46;;;;;;;;;;;;;;;;;;4152270;28;19968;-67
2023/11/22 11:16:49;;;;;;;;;;;;;;;;;;4145287;28;20021;-67
2023/11/22 11:18:51;;;;;;;;;;;;;;;;;;4148176;28;19922;-67
2023/11/22 11:20:53;;;;;;;;;;;;;;;;;;4160357;28;19990;-66
2023/11/22 11:22:55;;;;;;;;;;;;;;;;;;4136971;28;19925;-66
2023/11/22 11:24:57;;;;;;;;;;;;;;;;;;4159764;28;19928;-66
2023/11/22 11:26:59;;;;;;;;;;;;;;;;;;4163834;28;19987;-66
2023/11/22 11:29:02;;;;;;;;;;;;;;;;;;4163811;28;19940;-67
2023/11/22 11:31:05;;;;;;;;;;;;;;;;;;4164578;28;19929;-67
2023/11/22 11:33:07;;;;;;;;;;;;;;;;;;4151069;28;19925;-67
2023/11/22 11:35:09;;;;;;;;;;;;;;;;;;4154873;28;19929;-67
2023/11/22 11:37:12;;;;;;;;;;;;;;;;;;4165440;28;19974;-66
2023/11/22 11:39:14;;;;;;;;;;;;;;;;;;4162110;28;20528;-67
2023/11/22 11:41:16;;;;;;;;;;;;;;;;;;4161153;28;20336;-67
2023/11/22 11:43:18;;;;;;;;;;;;;;;;;;4166257;28;19921;-66
2023/11/22 11:45:19;;;;;;;;;;;;;;;;;;4162571;28;19926;-68
2023/11/22 11:47:21;;;;;;;;;;;;;;;;;;4163228;28;19928;-67
2023/11/22 11:49:23;;;;;;;;;;;;;;;;;;4161860;28;19921;-68
2023/11/22 11:51:24;;;;;;;;;;;;;;;;;;4160728;28;20412;-67
2023/11/22 11:53:26;;;;;;;;;;;;;;;;;;4145349;28;20519;-68
2023/11/22 11:55:27;;;;;;;;;;;;;;;;;;4159610;28;20427;-67
2023/11/22 11:57:29;;;;;;;;;;;;;;;;;;4162687;28;19929;-67
2023/11/22 11:59:31;;;;;;;;;;;;;;;;;;4163047;28;19925;-68
2023/11/22 12:01:33;;;;;;;;;;;;;;;;;;4162071;28;19925;-68
2023/11/22 12:03:35;;;;;;;;;;;;;;;;;;4160384;28;20313;-67
2023/11/22 12:05:37;;;;;;;;;;;;;;;;;;4158093;28;19921;-67
2023/11/22 12:07:38;;;;;;;;;;;;;;;;;;4164117;28;19925;-68
2023/11/22 12:09:40;;;;;;;;;;;;;;;;;;4164959;28;19925;-68
2023/11/22 12:11:44;;;;;;;;;;;;;;;;;;4162424;28;19925;-67
2023/11/22 12:13:50;;;;;;;;;;;;;;;;;;4164723;28;19921;-68
2023/11/22 12:15:53;;;;;;;;;;;;;;;;;;4165935;28;20020;-66
2023/11/22 12:17:56;;;;;;;;;;;;;;;;;;4164700;28;19928;-67
2023/11/22 12:19:58;;;;;;;;;;;;;;;;;;4164973;28;19971;-66
2023/11/22 12:22:00;;;;;;;;;;;;;;;;;;4163574;28;19967;-66
2023/11/22 12:24:05;;;;;;;;;;;;;;;;;;4165597;28;19921;-66
2023/11/22 12:26:07;;;;;;;;;;;;;;;;;;4164803;28;19931;-66
2023/11/22 12:28:08;;;;;;;;;;;;;;;;;;4163780;28;20023;-67
2023/11/22 12:30:11;;;;;;;;;;;;;;;;;;4165513;28;19928;-67
2023/11/22 12:32:12;;;;;;;;;;;;;;;;;;4167196;28;19922;-66
2023/11/22 12:34:14;;;;;;;;;;;;;;;;;;4165464;28;19921;-67
2023/11/22 12:36:17;;;;;;;;;;;;;;;;;;4164841;28;20012;-66
2023/11/22 12:38:18;;;;;;;;;;;;;;;;;;4163440;28;20195;-67
2023/11/22 12:40:20;;;;;;;;;;;;;;;;;;4163679;28;19931;-66
2023/11/22 12:42:21;;;;;;;;;;;;;;;;;;4158334;28;19921;-66
2023/11/22 12:44:23;;;;;;;;;;;;;;;;;;4156367;28;19925;-66
2023/11/22 12:46:24;;;;;;;;;;;;;;;;;;4160939;28;20350;-66
2023/11/22 12:48:29;;;;;;;;;;;;;;;;;;4159902;28;20320;-67
2023/11/22 12:50:31;;;;;;;;;;;;;;;;;;4162742;28;20024;-66
2023/11/22 12:52:33;;;;;;;;;;;;;;;;;;4156012;28;20341;-66
2023/11/22 12:54:35;;;;;;;;;;;;;;;;;;4162537;28;19931;-66
2023/11/22 12:56:36;;;;;;;;;;;;;;;;;;4162951;28;19931;-65
2023/11/22 12:58:38;;;;;;;;;;;;;;;;;;4168983;28;19943;-67
2023/11/22 13:00:39;;;;;;;;;;;;;;;;;;4162336;28;19925;-65
2023/11/22 13:02:41;;;;;;;;;;;;;;;;;;4161287;28;20016;-66
2023/11/22 13:04:52;;;;;;;;;;;;;;;;;;4159687;28;19924;-65
2023/11/22 13:06:54;;;;;;;;;;;;;;;;;;4158334;28;19929;-66
2023/11/22 13:08:56;;;;;;;;;;;;;;;;;;4166534;28;19983;-65
2023/11/22 13:10:58;;;;;;;;;;;;;;;;;;4159969;28;19975;-65
2023/11/22 13:13:01;;;;;;;;;;;;;;;;;;4164761;28;19928;-65
2023/11/22 13:15:04;;;;;;;;;;;;;;;;;;4163489;28;19928;-65
2023/11/22 13:17:06;;;;;;;;;;;;;;;;;;4160923;28;19921;-65
2023/11/22 13:19:09;;;;;;;;;;;;;;;;;;4164319;28;19932;-66
2023/11/22 13:21:10;;;;;;;;;;;;;;;;;;4159776;28;19932;-66
2023/11/22 13:23:13;;;;;;;;;;;;;;;;;;4164570;28;19925;-65
2023/11/22 13:25:17;;;;;;;;;;;;;;;;;;4164799;28;19927;-65
2023/11/22 13:27:19;;;;;;;;;;;;;;;;;;4159190;28;19983;-65
2023/11/22 13:29:20;;;;;;;;;;;;;;;;;;4161982;28;20284;-66
2023/11/22 13:31:22;;;;;;;;;;;;;;;;;;4161489;28;19967;-63
2023/11/22 13:33:24;;;;;;;;;;;;;;;;;;4174764;28;19925;-64
2023/11/22 13:35:27;;;;;;;;;;;;;;;;;;4160708;28;19927;-63
2023/11/22 13:37:28;;;;;;;;;;;;;;;;;;4139474;28;20005;-67
2023/11/22 13:39:33;;;;;;;;;;;;;;;;;;4159936;28;20539;-74
2023/11/22 13:41:35;;;;;;;;;;;;;;;;;;4162259;28;20020;-77
2023/11/22 13:43:36;;;;;;;;;;;;;;;;;;4157392;28;20632;-76
2023/11/22 13:45:40;;;;;;;;;;;;;;;;;;4162653;28;19982;-75
2023/11/22 13:47:43;;;;;;;;;;;;;;;;;;4161484;28;19976;-71
2023/11/22 13:49:45;;;;;;;;;;;;;;;;;;4160364;28;19998;-74
2023/11/22 13:51:48;;;;;;;;;;;;;;;;;;4154825;28;19920;-74
2023/11/22 13:53:53;;;;;;;;;;;;;;;;;;4162293;28;20399;-73